Terminal Aerodrome Forecast
Issued by NWS Albany, NY

Home | Current Version | Previous Version | Text Only | Print | Product List | Glossary On
Versions: 1 2 3 4 5 6 7 8 9 10 11 12 13 14 15 16 17
790
FTUS41 KALY 052358 CCA
TAFALB
TAF COR
KALB 052358Z 0600/0624 29007KT P6SM VCSH SCT030 BKN035
     FM060800 00000KT 5SM BR BKN035
     FM061400 04004KT P6SM SCT040 BKN200
     FM062200 09003KT P6SM OVC100=

USA.gov is the U.S. government's official web portal to all federal, state and local government web resources and services.